Time;durP1;ratioP1;P1;durP2;ratioP2;P2;SDS_P1;SDS_P2;PMS_P1;PMS_P2;Temp;Humidity;BMP_temperature;BMP_pressure;BME280_temperature;BME280_humidity;BME280_pressure;Samples;Min_cycle;Max_cycle;Signal;HPM_P1;HPM_P2
2021/01/11 00:00:34;;;;;;;5.63;1.80;;;4.40;99.90;;;;;;10360625;28;20052;-53
2021/01/11 00:05:55;;;;;;;5.25;2.58;;;4.30;99.90;;;;;;10357217;28;20045;-53
2021/01/11 00:11:22;;;;;;;10.13;4.47;;;4.30;99.90;;;;;;10361359;28;20066;-53
2021/01/11 00:16:43;;;;;;;9.48;2.53;;;4.30;99.90;;;;;;10367522;28;20048;-53
2021/01/11 00:22:04;;;;;;;10.63;3.70;;;4.40;99.90;;;;;;10365583;28;20044;-53
2021/01/11 00:27:25;;;;;;;11.60;3.17;;;4.30;99.90;;;;;;10371431;28;20045;-53
2021/01/11 00:32:46;;;;;;;8.20;2.80;;;4.30;99.90;;;;;;10364530;28;20061;-53
2021/01/11 00:38:07;;;;;;;7.97;2.88;;;4.30;99.90;;;;;;10366586;28;20050;-53
2021/01/11 00:43:28;;;;;;;11.32;4.28;;;4.40;99.90;;;;;;10368690;28;20141;-53
2021/01/11 00:48:50;;;;;;;8.77;3.28;;;4.40;99.90;;;;;;10363467;28;20038;-53
2021/01/11 00:54:11;;;;;;;9.93;3.50;;;4.30;99.90;;;;;;10365240;28;20061;-53
2021/01/11 00:59:32;;;;;;;6.63;2.53;;;4.30;99.90;;;;;;10369144;28;21101;-53
2021/01/11 01:04:53;;;;;;;17.85;4.13;;;4.30;99.90;;;;;;10362954;28;20096;-52
2021/01/11 01:10:14;;;;;;;12.60;3.80;;;4.30;99.90;;;;;;10378812;28;20061;-53
2021/01/11 01:15:35;;;;;;;13.00;4.78;;;4.40;99.90;;;;;;10363944;28;20418;-53
2021/01/11 01:20:56;;;;;;;13.40;2.83;;;4.40;99.90;;;;;;10365289;28;20076;-53
2021/01/11 01:26:17;;;;;;;9.95;3.50;;;4.30;99.90;;;;;;10366702;28;20046;-53
2021/01/11 01:31:38;;;;;;;11.85;4.63;;;4.40;99.90;;;;;;10364114;28;20053;-53
2021/01/11 01:36:59;;;;;;;11.15;4.78;;;4.40;99.90;;;;;;10365132;28;20131;-53
2021/01/11 01:42:21;;;;;;;14.38;4.68;;;4.30;99.90;;;;;;10365041;28;20049;-53
2021/01/11 01:47:42;;;;;;;13.25;4.97;;;4.30;99.90;;;;;;10364200;28;20115;-53
2021/01/11 01:53:04;;;;;;;13.30;5.30;;;4.30;99.90;;;;;;10362502;28;20049;-53
2021/01/11 01:58:26;;;;;;;9.85;5.40;;;4.30;99.90;;;;;;10364132;28;20061;-53
2021/01/11 02:03:48;;;;;;;13.88;4.65;;;4.30;99.90;;;;;;10362536;28;20115;-53
2021/01/11 02:09:16;;;;;;;8.95;4.13;;;4.20;99.90;;;;;;10362976;28;20055;-53
2021/01/11 02:15:03;;;;;;;16.50;5.30;;;4.20;99.90;;;;;;10377073;28;20128;-53
2021/01/11 02:20:42;;;;;;;14.18;5.15;;;4.20;99.90;;;;;;10366167;28;20088;-53
2021/01/11 02:26:14;;;;;;;11.67;5.07;;;4.10;99.90;;;;;;10362294;28;20121;-52
2021/01/11 02:31:36;;;;;;;10.07;4.38;;;4.20;99.90;;;;;;10362098;28;20117;-53
2021/01/11 02:37:00;;;;;;;23.38;5.57;;;4.10;99.90;;;;;;10359838;28;20046;-53
2021/01/11 02:42:21;;;;;;;12.00;4.40;;;4.10;99.90;;;;;;10362275;28;20371;-53
2021/01/11 02:48:03;;;;;;;14.23;6.13;;;4.10;99.90;;;;;;10363835;28;20215;-53
2021/01/11 02:53:53;;;;;;;17.45;5.10;;;4.10;99.90;;;;;;10360951;28;20052;-53
2021/01/11 02:59:37;;;;;;;10.88;5.03;;;4.00;99.90;;;;;;10359490;28;20131;-53
2021/01/11 03:04:59;;;;;;;17.73;4.75;;;4.10;99.90;;;;;;10363867;28;20164;-53
2021/01/11 03:10:20;;;;;;;12.50;5.32;;;4.00;99.90;;;;;;10363290;28;20045;-52
2021/01/11 03:15:41;;;;;;;14.23;5.93;;;4.10;99.90;;;;;;10364467;28;20042;-53
2021/01/11 03:21:02;;;;;;;18.65;6.45;;;4.10;99.90;;;;;;10365639;28;20394;-52
2021/01/11 03:26:24;;;;;;;18.80;6.93;;;4.10;99.90;;;;;;10361277;28;20121;-53
2021/01/11 03:31:46;;;;;;;14.45;7.15;;;4.00;99.90;;;;;;10362826;28;20065;-52
2021/01/11 03:37:07;;;;;;;14.63;5.10;;;4.10;99.90;;;;;;10361383;28;20441;-52
2021/01/11 03:42:28;;;;;;;14.68;6.00;;;4.10;99.90;;;;;;10360413;28;20045;-53
2021/01/11 03:47:49;;;;;;;14.48;5.43;;;4.10;99.90;;;;;;10356459;28;20092;-53
2021/01/11 03:53:10;;;;;;;22.15;6.28;;;4.10;99.90;;;;;;10362661;28;20095;-52
2021/01/11 03:58:31;;;;;;;17.08;6.43;;;4.10;99.90;;;;;;10365202;28;20066;-53
2021/01/11 04:03:52;;;;;;;20.52;6.53;;;4.20;99.90;;;;;;10354264;28;20033;-52
2021/01/11 04:09:13;;;;;;;17.48;5.22;;;4.10;99.90;;;;;;10357782;28;20038;-53
2021/01/11 04:14:34;;;;;;;17.33;6.95;;;4.10;99.90;;;;;;10359915;28;20379;-52
2021/01/11 04:19:55;;;;;;;28.63;8.25;;;4.00;99.90;;;;;;10358207;28;20646;-53
2021/01/11 04:25:16;;;;;;;18.35;5.75;;;4.00;99.90;;;;;;10360431;28;20059;-52
2021/01/11 04:30:37;;;;;;;15.43;6.07;;;4.20;99.90;;;;;;10358143;28;20052;-52
2021/01/11 04:35:59;;;;;;;29.42;7.28;;;4.10;99.90;;;;;;10357623;28;20092;-53
2021/01/11 04:41:21;;;;;;;19.02;6.60;;;4.20;99.90;;;;;;10358704;28;20042;-53
2021/01/11 04:46:44;;;;;;;16.15;6.05;;;4.10;99.90;;;;;;10357411;28;20069;-52
2021/01/11 04:52:07;;;;;;;23.90;7.30;;;4.20;99.90;;;;;;10370357;28;20076;-53
2021/01/11 04:57:33;;;;;;;20.55;7.72;;;4.30;99.90;;;;;;10365334;28;20101;-52
2021/01/11 05:03:00;;;;;;;17.15;5.93;;;4.20;99.90;;;;;;10367161;28;20034;-53
2021/01/11 05:08:21;;;;;;;23.10;7.82;;;4.20;99.90;;;;;;10369031;28;20038;-53
2021/01/11 05:13:42;;;;;;;16.98;6.15;;;4.30;99.90;;;;;;10368183;28;20056;-53
2021/01/11 05:19:25;;;;;;;17.27;5.95;;;4.30;99.90;;;;;;10363804;28;20034;-53
2021/01/11 05:24:46;;;;;;;16.92;5.82;;;4.30;99.90;;;;;;10363852;28;20045;-52
2021/01/11 05:30:29;;;;;;;18.77;5.15;;;4.40;99.90;;;;;;10365177;28;20037;-52
2021/01/11 05:36:13;;;;;;;18.42;5.40;;;4.50;99.90;;;;;;10364170;28;20050;-53
2021/01/11 05:41:40;;;;;;;18.38;6.35;;;4.40;99.90;;;;;;10364884;28;20045;-53
2021/01/11 05:47:01;;;;;;;15.82;5.57;;;4.40;99.90;;;;;;10366332;28;20103;-53
2021/01/11 05:52:31;;;;;;;19.25;5.28;;;4.50;99.90;;;;;;10363316;28;20042;-53
2021/01/11 05:58:03;;;;;;;12.77;4.82;;;4.50;99.90;;;;;;10362750;28;20053;-53
2021/01/11 06:03:24;;;;;;;12.18;5.03;;;4.40;99.90;;;;;;10366788;28;20049;-52
2021/01/11 06:08:45;;;;;;;13.80;5.10;;;4.50;99.90;;;;;;10363181;28;20058;-52
2021/01/11 06:14:06;;;;;;;17.23;5.90;;;4.40;99.90;;;;;;10359172;28;20066;-52
2021/01/11 06:19:27;;;;;;;11.70;5.03;;;4.50;99.90;;;;;;10359912;28;20145;-53
2021/01/11 06:24:48;;;;;;;11.13;5.47;;;4.40;99.90;;;;;;10359191;28;20091;-53
2021/01/11 06:30:10;;;;;;;9.55;4.30;;;4.40;99.90;;;;;;10358433;28;20088;-52
2021/01/11 06:35:32;;;;;;;13.07;4.53;;;4.50;99.90;;;;;;10357649;28;21900;-52
2021/01/11 06:40:54;;;;;;;17.52;5.68;;;4.50;99.90;;;;;;10357216;28;20037;-53
2021/01/11 06:46:27;;;;;;;8.13;4.07;;;4.50;99.90;;;;;;10360843;28;20050;-52
2021/01/11 06:52:00;;;;;;;15.05;5.43;;;4.60;99.90;;;;;;10369230;28;20497;-52
2021/01/11 06:57:28;;;;;;;10.77;5.55;;;4.60;99.90;;;;;;10356031;28;20034;-52
2021/01/11 07:02:49;;;;;;;12.73;3.72;;;4.60;99.90;;;;;;10356932;28;20339;-52
2021/01/11 07:08:13;;;;;;;14.38;5.40;;;4.60;99.90;;;;;;10355943;28;20117;-53
2021/01/11 07:13:42;;;;;;;15.45;4.28;;;4.60;99.90;;;;;;10357140;28;20046;-53
2021/01/11 07:19:03;;;;;;;9.18;4.25;;;4.60;99.90;;;;;;10351757;28;20045;-52
2021/01/11 07:24:24;;;;;;;13.30;3.95;;;4.60;99.90;;;;;;10355640;28;20164;-53
2021/01/11 07:29:46;;;;;;;11.63;4.32;;;4.50;99.90;;;;;;10355901;28;20462;-53
2021/01/11 07:35:08;;;;;;;9.77;5.10;;;4.60;99.90;;;;;;10358067;28;20107;-52
2021/01/11 07:40:29;;;;;;;9.40;4.35;;;4.50;99.90;;;;;;10360851;28;20056;-52
2021/01/11 07:46:03;;;;;;;10.45;3.88;;;4.60;99.90;;;;;;10363183;28;20033;-52
2021/01/11 07:51:24;;;;;;;12.38;3.20;;;4.60;99.90;;;;;;10374040;28;20044;-52
2021/01/11 07:56:48;;;;;;;15.23;4.43;;;4.60;99.90;;;;;;10360050;28;20120;-52
2021/01/11 08:02:14;;;;;;;8.57;3.92;;;4.60;99.90;;;;;;10364147;28;20042;-52
2021/01/11 08:07:36;;;;;;;14.00;3.85;;;4.50;99.90;;;;;;10362614;28;20065;-52
2021/01/11 08:13:07;;;;;;;9.35;3.53;;;4.50;99.90;;;;;;10359877;28;20086;-52
2021/01/11 08:18:28;;;;;;;6.75;2.03;;;4.50;99.90;;;;;;10362438;28;20451;-52
2021/01/11 08:24:00;;;;;;;9.48;3.28;;;4.50;99.90;;;;;;10365087;28;20033;-52
2021/01/11 08:29:21;;;;;;;8.88;3.45;;;4.50;99.90;;;;;;10359703;28;20033;-52
2021/01/11 08:34:42;;;;;;;13.13;4.90;;;4.40;99.90;;;;;;10369616;28;20137;-52
2021/01/11 08:40:09;;;;;;;9.18;4.22;;;4.50;99.90;;;;;;10368092;28;20080;-52
2021/01/11 08:45:33;;;;;;;7.35;3.20;;;4.60;99.90;;;;;;10372368;28;20052;-52
2021/01/11 08:50:54;;;;;;;10.00;3.80;;;4.50;99.90;;;;;;10369668;28;20128;-52
2021/01/11 08:56:27;;;;;;;6.63;2.72;;;4.60;99.90;;;;;;10368845;28;20049;-52
2021/01/11 09:01:49;;;;;;;5.57;3.15;;;4.60;99.90;;;;;;10370156;28;20095;-52
2021/01/11 09:07:10;;;;;;;7.60;2.47;;;4.50;99.90;;;;;;10380364;28;20048;-52
2021/01/11 09:12:34;;;;;;;6.95;3.22;;;4.60;99.90;;;;;;10380900;28;20273;-52
2021/01/11 09:18:07;;;;;;;9.23;4.18;;;4.60;99.90;;;;;;10370557;28;21038;-52
2021/01/11 09:23:28;;;;;;;8.10;3.45;;;4.70;99.90;;;;;;10370998;28;20034;-52
2021/01/11 09:28:49;;;;;;;6.07;2.65;;;4.60;99.90;;;;;;10367252;28;20030;-52
2021/01/11 09:34:10;;;;;;;7.93;3.58;;;4.70;99.90;;;;;;10367439;28;20433;-52
2021/01/11 09:39:31;;;;;;;8.57;3.15;;;4.80;99.90;;;;;;10369531;28;20057;-52
2021/01/11 09:44:52;;;;;;;6.35;2.75;;;4.70;99.90;;;;;;10372392;28;20045;-52
2021/01/11 09:50:14;;;;;;;8.27;2.50;;;4.80;99.90;;;;;;10364022;28;20049;-52
2021/01/11 09:55:35;;;;;;;7.38;2.92;;;4.80;99.90;;;;;;10368354;28;20053;-52
2021/01/11 10:00:56;;;;;;;7.90;2.17;;;4.90;99.90;;;;;;10379157;28;20037;-52
2021/01/11 10:06:17;;;;;;;9.05;3.20;;;4.90;99.90;;;;;;10364792;28;20045;-51
2021/01/11 10:11:39;;;;;;;10.55;2.83;;;4.80;99.90;;;;;;10371532;28;20029;-52
2021/01/11 10:17:01;;;;;;;4.40;2.63;;;4.90;99.90;;;;;;10365539;28;20084;-52
2021/01/11 10:22:22;;;;;;;5.47;1.80;;;4.90;99.90;;;;;;10367508;28;20038;-52
2021/01/11 10:27:43;;;;;;;5.03;2.20;;;5.00;99.90;;;;;;10366343;28;20030;-52
2021/01/11 10:33:04;;;;;;;9.70;2.80;;;5.10;99.90;;;;;;10361957;28;20041;-53
2021/01/11 10:38:25;;;;;;;6.72;2.78;;;5.10;99.90;;;;;;10366608;28;20042;-52
2021/01/11 10:43:48;;;;;;;6.88;2.33;;;5.10;99.90;;;;;;10363762;28;20113;-52
2021/01/11 10:49:09;;;;;;;9.85;3.63;;;5.00;99.90;;;;;;10362995;28;20137;-52
2021/01/11 10:54:30;;;;;;;5.10;1.95;;;5.10;99.90;;;;;;10363982;28;20598;-52
2021/01/11 10:59:51;;;;;;;7.07;2.08;;;5.20;99.90;;;;;;10361626;28;20042;-52
2021/01/11 11:05:12;;;;;;;7.47;2.10;;;5.20;99.90;;;;;;10363413;28;20992;-52
2021/01/11 11:10:33;;;;;;;5.10;1.80;;;5.20;99.90;;;;;;10362219;28;20478;-53
2021/01/11 11:15:54;;;;;;;3.78;2.22;;;5.20;99.90;;;;;;10362257;28;20049;-52
2021/01/11 11:21:15;;;;;;;3.50;1.40;;;5.30;99.90;;;;;;10360452;28;20478;-52
2021/01/11 11:26:36;;;;;;;4.80;1.85;;;5.40;99.90;;;;;;10362514;28;20501;-52
2021/01/11 11:31:57;;;;;;;8.60;2.65;;;5.50;99.90;;;;;;10360558;28;20563;-52
2021/01/11 11:37:19;;;;;;;3.50;2.05;;;5.50;99.90;;;;;;10359891;28;20058;-52
2021/01/11 11:42:42;;;;;;;5.00;2.10;;;5.50;99.90;;;;;;10359542;28;20034;-52
2021/01/11 11:48:03;;;;;;;6.40;2.45;;;5.50;99.90;;;;;;10363063;28;20113;-52
2021/01/11 11:53:24;;;;;;;3.78;1.48;;;5.60;99.90;;;;;;10362071;28;20477;-52
2021/01/11 11:58:45;;;;;;;5.82;2.35;;;5.60;99.90;;;;;;10373995;28;20092;-52
2021/01/11 12:04:07;;;;;;;4.05;1.48;;;5.50;99.90;;;;;;10359100;28;20039;-52
2021/01/11 12:09:28;;;;;;;5.97;1.75;;;5.60;99.90;;;;;;10363786;28;20046;-52
2021/01/11 12:14:49;;;;;;;3.33;1.73;;;5.70;99.90;;;;;;10369471;28;20049;-52
2021/01/11 12:20:10;;;;;;;7.30;2.30;;;5.70;99.90;;;;;;10367582;28;20049;-52
2021/01/11 12:25:31;;;;;;;7.00;2.58;;;5.70;99.90;;;;;;10367655;28;20045;-52
2021/01/11 12:30:52;;;;;;;5.05;2.30;;;5.70;99.90;;;;;;10367433;28;20567;-52
2021/01/11 12:36:30;;;;;;;6.03;2.38;;;5.50;99.90;;;;;;10374163;28;20132;-52
2021/01/11 12:41:51;;;;;;;11.23;3.20;;;5.40;99.90;;;;;;10365623;28;20060;-52
2021/01/11 12:47:13;;;;;;;5.85;2.55;;;5.40;99.90;;;;;;10369094;28;20068;-52
2021/01/11 12:52:34;;;;;;;7.20;3.15;;;5.40;99.90;;;;;;10367329;28;20045;-52
2021/01/11 12:57:55;;;;;;;7.93;3.25;;;5.40;99.90;;;;;;10366584;28;20536;-52
2021/01/11 13:03:16;;;;;;;7.80;3.38;;;5.40;99.90;;;;;;10366696;28;20041;-52
2021/01/11 13:08:38;;;;;;;7.63;2.92;;;5.30;99.90;;;;;;10370857;28;20409;-52
2021/01/11 13:14:01;;;;;;;10.45;3.33;;;5.30;99.90;;;;;;10354423;28;20626;-52
2021/01/11 13:19:23;;;;;;;5.40;2.10;;;5.40;99.90;;;;;;10362312;28;20049;-52
2021/01/11 13:24:44;;;;;;;8.68;2.65;;;5.40;99.90;;;;;;10369373;28;20210;-52
2021/01/11 13:30:06;;;;;;;9.95;3.25;;;5.30;99.90;;;;;;10365522;28;20101;-52
2021/01/11 13:35:27;;;;;;;10.95;3.75;;;5.30;99.90;;;;;;10357834;28;20149;-52
2021/01/11 13:40:51;;;;;;;7.43;4.53;;;5.40;99.90;;;;;;10378518;28;20038;-52
2021/01/11 13:46:12;;;;;;;12.95;3.92;;;5.40;99.90;;;;;;10381152;28;20042;-52
2021/01/11 13:51:34;;;;;;;12.82;3.55;;;5.40;99.90;;;;;;10358894;28;20044;-52
2021/01/11 13:56:55;;;;;;;7.18;2.22;;;5.40;99.90;;;;;;10359690;28;20045;-51
2021/01/11 14:02:16;;;;;;;7.22;2.53;;;5.40;99.90;;;;;;10364146;28;20553;-51
2021/01/11 14:07:41;;;;;;;7.03;3.17;;;5.40;99.90;;;;;;10362612;28;20120;-52
2021/01/11 14:13:02;;;;;;;10.82;3.90;;;5.50;99.90;;;;;;10365210;28;20954;-52
2021/01/11 14:18:23;;;;;;;6.70;2.50;;;5.50;99.90;;;;;;10365025;28;20166;-52
2021/01/11 14:23:44;;;;;;;8.18;3.35;;;5.60;99.90;;;;;;10366051;28;20049;-52
2021/01/11 14:29:05;;;;;;;7.55;3.10;;;5.60;99.90;;;;;;10367053;28;20048;-52
2021/01/11 14:34:28;;;;;;;8.75;2.70;;;5.60;99.90;;;;;;10355269;28;20037;-52
2021/01/11 14:39:49;;;;;;;7.07;2.60;;;5.60;99.90;;;;;;10351566;28;20227;-52
2021/01/11 14:45:10;;;;;;;7.78;3.22;;;5.70;99.90;;;;;;10353805;28;20089;-52
2021/01/11 14:50:32;;;;;;;6.47;3.20;;;5.70;99.90;;;;;;10350860;28;20046;-52
2021/01/11 14:55:53;;;;;;;4.90;2.38;;;5.60;99.90;;;;;;10344360;28;20049;-52
2021/01/11 15:01:14;;;;;;;7.10;3.30;;;5.60;99.90;;;;;;10351683;28;20501;-52
2021/01/11 15:06:35;;;;;;;8.68;2.60;;;5.70;99.90;;;;;;10345682;28;20083;-52
2021/01/11 15:11:56;;;;;;;8.48;3.10;;;5.70;99.90;;;;;;10354337;28;20029;-52
2021/01/11 15:17:17;;;;;;;9.52;2.53;;;5.70;99.90;;;;;;10349674;28;20367;-52
2021/01/11 15:22:38;;;;;;;6.03;1.90;;;5.70;99.90;;;;;;10353739;28;20046;-52
2021/01/11 15:28:01;;;;;;;5.38;2.13;;;5.80;99.90;;;;;;10353181;28;20038;-52
2021/01/11 15:33:22;;;;;;;7.72;2.88;;;5.80;99.90;;;;;;10346259;28;20360;-52
2021/01/11 15:38:43;;;;;;;5.72;1.75;;;5.80;99.90;;;;;;10352457;28;20445;-52
2021/01/11 15:44:04;;;;;;;4.00;1.27;;;5.90;99.90;;;;;;10354332;28;20045;-52
2021/01/11 15:49:25;;;;;;;4.88;1.60;;;5.90;99.90;;;;;;10351275;28;20084;-52
2021/01/11 15:54:46;;;;;;;5.07;1.75;;;5.90;99.90;;;;;;10350240;28;20053;-52
2021/01/11 16:00:12;;;;;;;5.03;2.15;;;5.90;99.90;;;;;;10347390;28;20061;-52
2021/01/11 16:05:33;;;;;;;4.60;2.20;;;6.00;99.90;;;;;;10355218;28;20048;-52
2021/01/11 16:10:56;;;;;;;6.13;2.13;;;6.00;99.90;;;;;;10343958;28;20128;-52
2021/01/11 16:16:17;;;;;;;4.75;2.33;;;6.00;99.90;;;;;;10353686;28;20045;-52
2021/01/11 16:21:38;;;;;;;4.22;1.67;;;6.10;99.90;;;;;;10345515;28;20086;-52
2021/01/11 16:26:59;;;;;;;4.20;1.70;;;6.20;99.90;;;;;;10347003;28;22314;-52
2021/01/11 16:32:21;;;;;;;2.28;0.68;;;6.30;99.90;;;;;;10350965;28;20445;-52
2021/01/11 16:37:41;;;;;;;1.77;0.80;;;6.30;99.90;;;;;;10353282;28;20042;-52
2021/01/11 16:43:03;;;;;;;5.90;1.15;;;6.30;99.90;;;;;;10348355;28;20066;-52
2021/01/11 16:48:24;;;;;;;2.45;0.82;;;6.30;99.90;;;;;;10350783;28;20267;-52
2021/01/11 16:53:44;;;;;;;11.35;1.13;;;6.40;99.90;;;;;;10350867;28;20625;-51
2021/01/11 16:59:06;;;;;;;4.22;1.20;;;6.40;99.90;;;;;;10357088;28;20063;-52
2021/01/11 17:04:27;;;;;;;6.60;0.90;;;6.60;99.90;;;;;;10356123;28;20469;-52
2021/01/11 17:09:48;;;;;;;1.65;1.00;;;6.50;99.90;;;;;;10356790;28;20556;-52
2021/01/11 17:15:13;;;;;;;3.38;0.90;;;6.60;99.90;;;;;;10361661;28;20099;-52
2021/01/11 17:20:34;;;;;;;11.98;2.15;;;6.50;99.90;;;;;;10354687;28;21480;-52
2021/01/11 17:25:55;;;;;;;2.03;0.80;;;6.60;99.90;;;;;;10359576;28;20037;-52
2021/01/11 17:31:26;;;;;;;1.77;0.80;;;6.60;99.90;;;;;;10356722;28;20079;-52
2021/01/11 17:36:47;;;;;;;2.17;0.80;;;6.60;99.90;;;;;;10352448;28;20069;-52
2021/01/11 17:42:08;;;;;;;5.97;1.20;;;6.60;99.90;;;;;;10356275;28;20497;-52
2021/01/11 17:47:29;;;;;;;1.23;0.50;;;6.70;99.90;;;;;;10366749;28;20069;-52
2021/01/11 17:52:50;;;;;;;1.48;0.60;;;6.50;99.90;;;;;;10348689;28;20052;-52
2021/01/11 17:58:11;;;;;;;3.88;1.00;;;6.50;99.90;;;;;;10351824;28;20084;-52
2021/01/11 18:03:33;;;;;;;3.20;0.45;;;6.60;99.90;;;;;;10348674;28;20130;-52
2021/01/11 18:08:54;;;;;;;4.05;1.02;;;6.60;99.90;;;;;;10351266;28;20045;-52
2021/01/11 18:14:15;;;;;;;3.58;1.13;;;6.60;99.90;;;;;;10348425;28;20041;-51
2021/01/11 18:19:36;;;;;;;2.85;1.67;;;6.60;99.90;;;;;;10347940;28;20416;-51
2021/01/11 18:24:58;;;;;;;0.57;0.38;;;6.60;99.90;;;;;;10359705;28;20046;-51
2021/01/11 18:30:20;;;;;;;1.88;0.55;;;6.70;99.90;;;;;;10360142;28;20088;-51
2021/01/11 18:35:41;;;;;;;2.55;0.77;;;6.60;99.90;;;;;;10357043;28;20826;-52
2021/01/11 18:41:02;;;;;;;1.85;0.70;;;6.50;99.90;;;;;;10359894;28;20502;-52
2021/01/11 18:46:23;;;;;;;4.82;1.13;;;6.40;99.90;;;;;;10360099;28;20048;-52
2021/01/11 18:51:44;;;;;;;2.55;0.93;;;6.50;99.90;;;;;;10359896;28;20080;-52
2021/01/11 18:57:09;;;;;;;1.08;0.40;;;6.40;99.90;;;;;;10359115;28;20077;-52
2021/01/11 19:02:30;;;;;;;3.53;1.75;;;6.50;99.90;;;;;;10357470;28;20538;-52
2021/01/11 19:07:51;;;;;;;4.82;0.90;;;6.50;99.90;;;;;;10358013;28;20095;-52
2021/01/11 19:13:12;;;;;;;1.90;0.85;;;6.50;99.90;;;;;;10359776;28;20074;-52
2021/01/11 19:18:33;;;;;;;7.30;0.90;;;6.40;99.90;;;;;;10357909;28;20037;-52
2021/01/11 19:23:54;;;;;;;1.65;0.95;;;6.40;99.90;;;;;;10360268;28;20046;-52
2021/01/11 19:29:16;;;;;;;6.20;0.90;;;6.40;99.90;;;;;;10359338;28;20037;-52
2021/01/11 19:34:37;;;;;;;2.20;0.95;;;6.40;99.90;;;;;;10359743;28;20139;-52
2021/01/11 19:39:58;;;;;;;2.67;1.08;;;6.50;99.90;;;;;;10356270;28;20073;-52
2021/01/11 19:45:19;;;;;;;4.07;1.30;;;6.50;99.90;;;;;;10356643;28;20151;-52
2021/01/11 19:50:40;;;;;;;1.35;0.73;;;6.40;99.90;;;;;;10354548;28;20042;-52
2021/01/11 19:56:03;;;;;;;3.00;1.40;;;6.40;99.90;;;;;;10369145;28;20041;-53
2021/01/11 20:01:24;;;;;;;5.15;1.83;;;6.40;99.90;;;;;;10356767;28;20072;-53
2021/01/11 20:06:50;;;;;;;2.92;1.23;;;6.40;99.90;;;;;;10360034;28;20403;-52
2021/01/11 20:12:16;;;;;;;4.38;1.63;;;6.50;99.90;;;;;;10359834;28;20038;-53
2021/01/11 20:17:38;;;;;;;3.42;1.42;;;6.50;99.90;;;;;;10355853;28;20046;-53
2021/01/11 20:22:59;;;;;;;2.42;1.00;;;6.50;99.90;;;;;;10357253;28;20069;-53
2021/01/11 20:28:20;;;;;;;3.28;1.27;;;6.60;99.90;;;;;;10357127;28;20034;-53
2021/01/11 20:33:41;;;;;;;6.72;1.80;;;6.70;99.90;;;;;;10366819;28;20052;-53
2021/01/11 20:39:04;;;;;;;6.32;1.58;;;6.70;99.90;;;;;;10368292;28;20058;-53
2021/01/11 20:44:25;;;;;;;8.15;1.70;;;6.70;99.90;;;;;;10361365;28;20038;-53
2021/01/11 20:49:46;;;;;;;3.55;1.67;;;6.70;99.90;;;;;;10364328;28;20079;-53
2021/01/11 20:55:08;;;;;;;3.17;1.17;;;6.80;99.90;;;;;;10363919;28;20413;-53
2021/01/11 21:00:33;;;;;;;3.10;1.08;;;6.90;99.90;;;;;;10365364;28;20044;-53
2021/01/11 21:05:54;;;;;;;5.93;1.55;;;7.00;99.90;;;;;;10367433;28;20552;-53
2021/01/11 21:11:15;;;;;;;3.00;0.93;;;7.00;99.90;;;;;;10364498;28;20077;-53
2021/01/11 21:16:36;;;;;;;2.67;1.02;;;7.10;99.90;;;;;;10368458;28;20042;-53
2021/01/11 21:21:58;;;;;;;7.22;1.20;;;7.20;99.90;;;;;;10362651;28;20551;-53
2021/01/11 21:27:19;;;;;;;2.67;1.13;;;7.30;99.90;;;;;;10356158;28;20038;-53
2021/01/11 21:32:41;;;;;;;2.53;0.98;;;7.30;99.90;;;;;;10351864;28;20401;-53
2021/01/11 21:38:02;;;;;;;2.53;0.95;;;7.30;99.90;;;;;;10357070;28;20057;-53
2021/01/11 21:43:23;;;;;;;2.40;0.75;;;7.20;99.90;;;;;;10350468;28;20041;-53
2021/01/11 21:48:45;;;;;;;5.60;2.13;;;7.30;99.90;;;;;;10353931;28;20049;-53
2021/01/11 21:54:08;;;;;;;4.07;0.75;;;7.30;99.90;;;;;;10351945;28;20166;-53
2021/01/11 21:59:29;;;;;;;6.32;1.55;;;7.40;99.90;;;;;;10352400;28;20048;-53
2021/01/11 22:04:50;;;;;;;5.10;1.05;;;7.30;99.90;;;;;;10348540;28;20104;-53
2021/01/11 22:10:11;;;;;;;1.98;1.73;;;7.30;99.90;;;;;;10348402;28;20177;-53
2021/01/11 22:15:32;;;;;;;6.75;2.35;;;7.30;99.90;;;;;;10356705;28;20124;-53
2021/01/11 22:20:53;;;;;;;8.30;1.05;;;7.20;99.90;;;;;;10362800;28;20455;-52
2021/01/11 22:26:14;;;;;;;3.63;0.73;;;7.20;99.90;;;;;;10360174;28;20052;-52
2021/01/11 22:31:35;;;;;;;5.55;1.33;;;7.40;99.90;;;;;;10378540;28;20096;-53
2021/01/11 22:36:56;;;;;;;4.13;1.15;;;7.40;99.90;;;;;;10373862;28;20127;-53
2021/01/11 22:42:22;;;;;;;2.47;1.40;;;7.40;99.90;;;;;;10363810;28;20046;-52
2021/01/11 22:47:43;;;;;;;3.03;0.95;;;7.40;99.90;;;;;;10359738;28;20073;-53
2021/01/11 22:53:04;;;;;;;2.58;1.02;;;7.40;99.90;;;;;;10363383;28;20038;-53
2021/01/11 22:58:25;;;;;;;3.05;1.23;;;7.40;99.90;;;;;;10363467;28;20158;-53
2021/01/11 23:03:46;;;;;;;2.08;0.70;;;7.40;99.90;;;;;;10361172;28;20029;-53
2021/01/11 23:09:07;;;;;;;4.70;1.20;;;7.40;99.90;;;;;;10361487;28;20378;-53
2021/01/11 23:14:28;;;;;;;6.03;1.33;;;7.40;99.90;;;;;;10360576;28;20114;-53
2021/01/11 23:19:49;;;;;;;5.88;1.13;;;7.40;99.90;;;;;;10362133;28;20047;-53
2021/01/11 23:25:16;;;;;;;5.63;1.15;;;7.40;99.90;;;;;;10357760;28;20531;-53
2021/01/11 23:30:55;;;;;;;4.38;1.48;;;7.40;99.90;;;;;;10374882;28;20065;-53
2021/01/11 23:36:16;;;;;;;1.63;0.60;;;7.40;99.90;;;;;;10356927;28;20405;-54
2021/01/11 23:41:45;;;;;;;5.25;1.42;;;7.50;99.90;;;;;;10354874;28;20462;-53
2021/01/11 23:47:06;;;;;;;1.58;0.98;;;7.50;99.90;;;;;;10358104;28;20120;-53
2021/01/11 23:52:27;;;;;;;7.28;1.27;;;7.40;99.90;;;;;;10357865;28;20060;-53
2021/01/11 23:57:49;;;;;;;3.38;1.77;;;7.40;99.90;;;;;;10367468;28;20049;-52
